Time;durP1;ratioP1;P1;durP2;ratioP2;P2;SDS_P1;SDS_P2;PMS_P1;PMS_P2;Temp;Humidity;BMP_temperature;BMP_pressure;BME280_temperature;BME280_humidity;BME280_pressure;Samples;Min_cycle;Max_cycle;Signal;HPM_P1;HPM_P2
2023/09/19 00:01:25;;;;;;;;;;;;;;;14.72;86.88;97964.13;10276893;28;20725;-53
2023/09/19 00:06:25;;;;;;;9.93;6.93;;;;;;;15.07;84.54;97961.00;10276851;28;20037;-52
2023/09/19 00:11:26;;;;;;;12.52;7.07;;;;;;;15.41;82.86;97957.81;10280375;28;20076;-52
2023/09/19 00:16:26;;;;;;;24.02;7.72;;;;;;;15.68;81.25;97957.31;10280436;28;20061;-52
2023/09/19 00:21:25;;;;;;;10.02;7.00;;;;;;;15.79;78.68;97949.31;10280899;28;20056;-52
2023/09/19 00:26:24;;;;;;;;;;;;;;;15.83;76.94;97971.03;10283141;28;20113;-52
2023/09/19 00:31:23;;;;;;;12.57;7.73;;;;;;;15.68;77.27;97980.88;10280338;28;20487;-51
2023/09/19 00:36:21;;;;;;;;;;;;;;;15.40;78.62;97971.78;10281153;28;20743;-50
2023/09/19 00:41:21;;;;;;;13.60;8.07;;;;;;;15.36;79.07;97968.34;10282688;28;20508;-53
2023/09/19 00:46:20;;;;;;;13.35;8.60;;;;;;;15.33;78.99;97963.19;10282881;28;20121;-51
2023/09/19 00:51:20;;;;;;;;;;;;;;;15.18;80.02;97963.44;10283559;28;20088;-52
2023/09/19 00:56:20;;;;;;;10.95;7.70;;;;;;;15.33;80.02;97957.94;10281863;28;20020;-51
2023/09/19 01:01:20;;;;;;;9.25;6.90;;;;;;;15.41;80.12;97965.66;10286059;28;20077;-51
2023/09/19 01:06:19;;;;;;;9.13;6.28;;;;;;;15.50;79.50;97962.88;10287650;28;20121;-52
2023/09/19 01:11:39;;;;;;;11.73;7.45;;;;;;;15.77;78.71;97958.91;10289724;28;20065;-52
2023/09/19 01:17:00;;;;;;;11.15;7.40;;;;;;;15.96;77.81;97950.75;10288663;28;20068;-52
2023/09/19 01:22:38;;;;;;;9.77;7.00;;;;;;;16.08;77.16;97951.34;10287220;28;20077;-51
2023/09/19 01:27:52;;;;;;;10.45;6.82;;;;;;;16.11;76.56;97947.81;10250875;28;20472;-51
2023/09/19 01:32:52;;;;;;;12.88;7.15;;;;;;;16.16;76.09;97946.00;10289389;28;20041;-52
2023/09/19 01:37:53;;;;;;;11.45;7.28;;;;;;;15.94;77.04;97940.31;10288269;28;20062;-51
2023/09/19 01:43:17;;;;;;;10.25;7.13;;;;;;;15.77;77.71;97947.59;10288853;28;20129;-51
2023/09/19 01:48:46;;;;;;;11.48;7.25;;;;;;;15.58;78.38;97944.47;10288238;28;20053;-51
2023/09/19 01:54:03;;;;;;;10.23;7.35;;;;;;;15.32;79.13;97953.63;10288352;28;20046;-51
2023/09/19 01:59:09;;;;;;;17.02;9.30;;;;;;;14.97;78.76;97941.13;10281207;28;20069;-50
2023/09/19 02:04:09;;;;;;;13.73;9.40;;;;;;;14.57;80.07;97942.53;10286963;28;20061;-50
2023/09/19 02:09:08;;;;;;;16.17;9.65;;;;;;;14.22;83.87;97937.78;10287383;28;20124;-51
2023/09/19 02:14:08;;;;;;;12.30;8.88;;;;;;;14.22;84.50;97937.78;10285167;28;20064;-51
2023/09/19 02:19:07;;;;;;;17.27;10.38;;;;;;;14.20;83.35;97950.84;10287121;28;20064;-51
2023/09/19 02:24:08;;;;;;;14.50;10.07;;;;;;;14.15;84.54;97957.03;10285698;28;20168;-51
2023/09/19 02:29:07;;;;;;;17.40;9.80;;;;;;;13.97;84.70;97953.72;10285921;28;20346;-51
2023/09/19 02:34:08;;;;;;;;;;;;;;;13.97;85.00;97953.72;10287818;28;20612;-50
2023/09/19 02:39:08;;;;;;;17.05;10.65;;;;;;;13.97;85.22;97964.16;10285977;28;20041;-51
2023/09/19 02:44:08;;;;;;;12.45;9.93;;;;;;;13.95;85.09;97965.06;10285420;28;20064;-51
2023/09/19 02:49:07;;;;;;;19.38;10.82;;;;;;;13.94;85.00;97952.91;10286023;28;20630;-51
2023/09/19 02:54:06;;;;;;;;;;;;;;;13.88;86.10;97946.00;10286599;28;20417;-50
2023/09/19 02:59:05;;;;;;;21.85;10.98;;;;;;;13.86;86.13;97954.72;10284737;28;20436;-51
2023/09/19 03:04:08;;;;;;;19.20;12.13;;;;;;;13.81;86.84;97940.88;10282282;28;20113;-52
2023/09/19 03:09:13;;;;;;;18.65;12.93;;;;;;;13.75;86.91;97937.47;10281806;28;20053;-51
2023/09/19 03:14:12;;;;;;;20.00;13.07;;;;;;;13.76;86.83;97920.91;10285095;28;20057;-50
2023/09/19 03:19:12;;;;;;;;;;;;;;;13.71;86.86;97904.47;10284821;28;20057;-51
2023/09/19 03:24:11;;;;;;;18.37;12.60;;;;;;;13.72;86.95;97907.94;10284426;28;21138;-51
2023/09/19 03:29:10;;;;;;;22.23;13.30;;;;;;;13.66;87.42;97898.44;10282070;28;20320;-51
2023/09/19 03:34:09;;;;;;;18.77;12.00;;;;;;;13.67;87.19;97907.13;10283808;28;20173;-49
2023/09/19 03:39:08;;;;;;;;;;;;;;;13.47;88.29;97929.03;10285095;28;20053;-51
2023/09/19 03:44:07;;;;;;;21.67;12.48;;;;;;;13.51;88.04;97922.03;10284604;28;20041;-49
2023/09/19 03:49:06;;;;;;;;;;;;;;;13.43;87.96;97924.72;10266844;28;20057;-50
2023/09/19 03:54:05;;;;;;;24.08;12.82;;;;;;;13.46;87.98;97926.44;10284287;28;19919;-51
2023/09/19 03:59:04;;;;;;;20.70;12.35;;;;;;;13.39;87.74;97925.63;10283070;28;20046;-52
2023/09/19 04:04:09;;;;;;;21.45;12.07;;;;;;;13.42;87.43;97906.47;10284209;28;20069;-51
2023/09/19 04:09:09;;;;;;;18.20;12.65;;;;;;;13.40;87.70;97924.75;10254216;28;20087;-52
2023/09/19 04:14:08;;;;;;;20.55;12.77;;;;;;;13.40;87.43;97939.50;10282551;28;20125;-52
2023/09/19 04:19:06;;;;;;;;;;;;;;;13.28;87.95;97935.28;10266755;28;20022;-53
2023/09/19 04:24:06;;;;;;;14.55;12.05;;;;;;;13.38;87.55;97936.94;10283603;28;20008;-52
2023/09/19 04:29:06;;;;;;;19.70;12.65;;;;;;;13.43;87.30;97945.56;10283489;28;20061;-52
2023/09/19 04:34:05;;;;;;;19.05;12.98;;;;;;;13.41;87.29;97952.53;10282971;28;20072;-52
2023/09/19 04:39:07;;;;;;;;;;;;;;;13.42;87.30;97971.63;10290550;28;20049;-50
2023/09/19 04:44:10;;;;;;;21.20;12.57;;;;;;;13.38;87.00;97965.59;10287878;28;19983;-50
2023/09/19 04:49:09;;;;;;;22.50;12.88;;;;;;;13.50;87.49;97956.81;10288339;28;20569;-49
2023/09/19 04:54:08;;;;;;;;;;;;;;;13.66;87.11;97952.34;10284227;28;20104;-51
2023/09/19 04:59:06;;;;;;;23.63;13.65;;;;;;;13.77;86.41;97953.06;10283391;28;19909;-48
2023/09/19 05:04:05;;;;;;;24.85;13.27;;;;;;;13.92;86.43;97959.88;10289732;28;20133;-51
2023/09/19 05:09:05;;;;;;;24.90;13.63;;;;;;;14.11;86.21;97950.09;10290162;28;20124;-50
2023/09/19 05:14:04;;;;;;;21.00;14.95;;;;;;;14.35;85.10;97951.53;10286856;28;20068;-50
2023/09/19 05:19:03;;;;;;;;;;;;;;;14.44;85.35;97934.88;10290352;28;20069;-51
2023/09/19 05:24:02;;;;;;;21.43;13.30;;;;;;;14.70;85.44;97940.63;10290822;28;19921;-48
2023/09/19 05:29:03;;;;;;;;;;;;;;;15.01;84.63;97930.59;10286196;28;20061;-51
2023/09/19 05:34:02;;;;;;;37.50;21.55;;;;;;;15.22;83.62;97926.78;10282975;28;19949;-51
2023/09/19 05:39:01;;;;;;;;;;;;;;;15.30;82.93;97920.53;10287136;28;20128;-51
2023/09/19 05:44:00;;;;;;;20.43;12.53;;;;;;;15.24;82.41;97890.97;10272659;28;19968;-51
2023/09/19 05:48:59;;;;;;;;;;;;;;;15.45;81.86;97913.25;10291618;28;20125;-51
2023/09/19 05:53:58;;;;;;;20.70;11.98;;;;;;;15.60;81.31;97909.53;10291284;28;19921;-52
2023/09/19 05:58:57;;;;;;;19.15;10.80;;;;;;;15.44;81.04;97861.88;10290037;28;20104;-51
2023/09/19 06:03:56;;;;;;;;;;;;;;;15.85;80.60;97888.13;10291585;28;20176;-51
2023/09/19 06:08:55;;;;;;;19.85;10.93;;;;;;;16.14;80.00;97884.06;10289770;28;19921;-51
2023/09/19 06:13:53;;;;;;;;;;;;;;;16.40;79.49;97883.50;10290899;28;20068;-52
2023/09/19 06:18:52;;;;;;;20.17;10.38;;;;;;;16.71;77.59;97883.66;10273277;28;19971;-51
2023/09/19 06:23:52;;;;;;;18.23;10.77;;;;;;;16.96;76.30;97876.09;10287576;28;20072;-52
2023/09/19 06:28:51;;;;;;;17.38;9.77;;;;;;;17.19;75.13;97872.91;10288343;28;20061;-52
2023/09/19 06:33:50;;;;;;;16.23;9.15;;;;;;;17.18;73.13;97876.41;10282315;28;20105;-51
2023/09/19 06:38:51;;;;;;;14.43;8.73;;;;;;;17.31;76.95;97879.59;10280278;28;20053;-51
2023/09/19 06:43:53;;;;;;;16.05;9.38;;;;;;;17.54;75.30;97876.34;10279189;28;20140;-51
2023/09/19 06:48:53;;;;;;;13.35;9.65;;;;;;;17.50;75.12;97877.34;10278001;28;21953;-51
2023/09/19 06:53:54;;;;;;;13.20;8.48;;;;;;;17.44;74.42;97865.25;10283699;28;20052;-51
2023/09/19 06:58:53;;;;;;;13.02;8.90;;;;;;;17.79;73.78;97868.69;10277033;28;20122;-51
2023/09/19 07:03:53;;;;;;;14.60;8.27;;;;;;;18.04;72.37;97884.63;10284446;28;20038;-52
2023/09/19 07:08:52;;;;;;;15.38;8.50;;;;;;;18.25;70.85;97885.75;10284453;28;20120;-51
2023/09/19 07:13:51;;;;;;;13.52;8.73;;;;;;;18.49;70.92;97891.16;10280468;28;20120;-51
2023/09/19 07:18:50;;;;;;;13.60;8.57;;;;;;;18.56;70.26;97911.94;10283322;28;20095;-52
2023/09/19 07:23:49;;;;;;;13.93;9.32;;;;;;;18.68;69.80;97897.59;10273707;28;20022;-52
2023/09/19 07:28:48;;;;;;;13.40;8.57;;;;;;;19.12;67.82;97895.31;10282743;28;20576;-53
2023/09/19 07:33:47;;;;;;;13.65;8.63;;;;;;;19.62;65.67;97873.47;10270363;28;20474;-52
2023/09/19 07:38:48;;;;;;;14.02;8.05;;;;;;;19.47;61.91;97730.09;10284415;28;20040;-53
2023/09/19 07:43:46;;;;;;;13.45;7.53;;;;;;;20.80;61.28;97841.78;10280646;28;20129;-51
2023/09/19 07:48:48;;;;;;;12.07;6.85;;;;;;;21.45;57.50;97845.22;10271017;28;20030;-51
2023/09/19 07:53:48;;;;;;;9.90;6.68;;;;;;;21.97;55.49;97837.63;10271644;28;20229;-53
2023/09/19 07:58:47;;;;;;;9.65;6.50;;;;;;;22.38;53.53;97842.78;10271767;28;20189;-52
2023/09/19 08:03:46;;;;;;;9.63;6.20;;;;;;;22.54;50.85;97835.00;10267769;28;20042;-51
2023/09/19 08:08:44;;;;;;;10.15;6.03;;;;;;;22.74;50.04;97844.63;10272569;28;20890;-52
2023/09/19 08:13:45;;;;;;;8.75;6.65;;;;;;;22.89;50.12;97832.44;10283203;28;20507;-52
2023/09/19 08:18:47;;;;;;;10.15;6.57;;;;;;;23.32;49.41;97830.25;10287149;28;20129;-52
2023/09/19 08:23:46;;;;;;;22.30;8.20;;;;;;;23.61;50.19;97827.00;10279144;28;20061;-54
2023/09/19 08:28:45;;;;;;;13.95;7.60;;;;;;;23.95;49.45;97814.59;10286060;28;20659;-52
2023/09/19 08:33:48;;;;;;;9.85;6.72;;;;;;;24.11;48.31;97819.06;10284927;28;20026;-52
2023/09/19 08:38:49;;;;;;;9.63;6.43;;;;;;;24.41;47.43;97812.09;10288982;28;20053;-53
2023/09/19 08:43:48;;;;;;;9.70;6.63;;;;;;;24.62;47.13;97803.84;10285592;28;20527;-52
2023/09/19 08:49:33;;;;;;;9.60;6.82;;;;;;;24.79;47.15;97789.59;10286454;28;20121;-53
2023/09/19 08:54:39;;;;;;;9.65;6.20;;;;;;;24.95;45.94;97785.13;10281881;28;20096;-53
2023/09/19 08:59:41;;;;;;;8.80;6.50;;;;;;;24.61;46.52;97751.72;10287060;28;20058;-53
2023/09/19 09:04:42;;;;;;;7.50;5.53;;;;;;;24.95;45.24;97778.97;10282174;28;20505;-52
2023/09/19 09:09:42;;;;;;;7.90;5.57;;;;;;;25.23;44.45;97786.16;10284514;28;20061;-53
2023/09/19 09:14:47;;;;;;;6.28;5.05;;;;;;;25.44;44.18;97786.66;10286278;28;20504;-53
2023/09/19 09:19:47;;;;;;;7.65;5.13;;;;;;;25.60;44.43;97781.28;10282975;28;20073;-53
2023/09/19 09:24:53;;;;;;;10.15;5.80;;;;;;;25.76;43.38;97765.25;10285112;28;20120;-53
2023/09/19 09:29:54;;;;;;;10.68;6.30;;;;;;;25.92;43.11;97760.66;10288466;28;20072;-53
2023/09/19 09:34:55;;;;;;;6.05;4.93;;;;;;;26.06;42.83;97762.44;10288602;28;20065;-53
2023/09/19 09:39:58;;;;;;;8.75;5.75;;;;;;;26.14;42.42;97766.34;10280147;28;20148;-53
2023/09/19 09:45:16;;;;;;;6.07;5.10;;;;;;;26.28;41.99;97754.84;10274295;28;20118;-54
2023/09/19 09:50:39;;;;;;;8.20;5.45;;;;;;;26.71;41.84;97744.00;10284429;28;20093;-53
2023/09/19 09:56:07;;;;;;;7.78;5.70;;;;;;;27.27;41.22;97734.97;10282584;28;20053;-53
2023/09/19 10:01:09;;;;;;;7.43;4.80;;;;;;;27.25;39.84;97719.06;10279191;28;20065;-54
2023/09/19 10:06:25;;;;;;;7.22;5.05;;;;;;;27.54;39.40;97737.53;10277061;28;20461;-54
2023/09/19 10:11:30;;;;;;;6.93;5.05;;;;;;;27.79;39.96;97732.16;10283596;28;20076;-55
2023/09/19 10:16:31;;;;;;;10.63;5.50;;;;;;;28.12;38.82;97725.38;10276983;28;20080;-54
2023/09/19 10:21:30;;;;;;;8.02;5.10;;;;;;;28.23;38.53;97698.78;10281648;28;20061;-53
2023/09/19 10:26:30;;;;;;;9.70;5.40;;;;;;;28.55;37.89;97727.56;10284147;28;20057;-54
2023/09/19 10:31:34;;;;;;;7.50;4.97;;;;;;;28.51;36.47;97723.41;10274410;28;20129;-54
2023/09/19 10:36:35;;;;;;;6.10;5.03;;;;;;;28.17;36.78;97667.22;10281437;28;20080;-54
2023/09/19 10:41:34;;;;;;;6.97;5.20;;;;;;;28.73;36.89;97716.50;10278975;28;20156;-54
2023/09/19 10:46:33;;;;;;;6.45;4.60;;;;;;;28.70;36.27;97711.38;10283274;28;20060;-53
2023/09/19 10:51:41;;;;;;;7.20;5.20;;;;;;;28.66;37.33;97708.94;10272067;28;20113;-53
2023/09/19 10:56:48;;;;;;;6.65;5.15;;;;;;;28.71;37.11;97686.38;10256466;28;20113;-53
2023/09/19 11:01:53;;;;;;;8.30;5.60;;;;;;;28.92;35.36;97706.09;10267344;28;20128;-53
2023/09/19 11:07:12;;;;;;;6.80;5.10;;;;;;;28.96;36.28;97704.91;10258805;28;20136;-53
2023/09/19 11:12:13;;;;;;;10.02;5.18;;;;;;;28.89;35.64;97701.00;10265749;28;20120;-53
2023/09/19 11:17:37;;;;;;;7.07;5.20;;;;;;;28.64;35.76;97701.97;10262205;28;20156;-53
2023/09/19 11:22:57;;;;;;;7.35;4.85;;;;;;;28.92;36.16;97695.41;10258184;28;20112;-53
2023/09/19 11:28:05;;;;;;;7.05;5.25;;;;;;;29.08;36.17;97677.22;10273093;28;20129;-54
2023/09/19 11:33:28;;;;;;;6.57;5.18;;;;;;;29.33;36.25;97680.69;10271736;28;20068;-54
2023/09/19 11:38:42;;;;;;;7.45;4.80;;;;;;;29.71;35.15;97685.66;10273264;28;20116;-53
2023/09/19 11:43:41;;;;;;;9.05;5.10;;;;;;;29.71;34.31;97664.25;10281117;28;20657;-54
2023/09/19 11:48:41;;;;;;;7.25;4.95;;;;;;;29.23;35.10;97679.69;10279264;28;20069;-54
2023/09/19 11:53:40;;;;;;;8.07;5.30;;;;;;;28.92;36.29;97663.34;10283669;28;20145;-53
2023/09/19 11:58:42;;;;;;;7.40;5.15;;;;;;;28.43;36.06;97657.25;10279982;28;20516;-53
2023/09/19 12:03:49;;;;;;;7.75;4.72;;;;;;;28.36;36.61;97645.34;10282203;28;20358;-54
2023/09/19 12:08:49;;;;;;;9.40;5.53;;;;;;;28.14;37.17;97635.41;10279914;28;20460;-53
2023/09/19 12:13:50;;;;;;;7.88;5.88;;;;;;;27.74;38.41;97646.31;10282374;28;20057;-54
2023/09/19 12:18:50;;;;;;;7.82;5.32;;;;;;;27.44;38.39;97627.19;10278289;28;20112;-54
2023/09/19 12:23:59;;;;;;;8.02;5.38;;;;;;;27.49;38.00;97649.06;10284828;28;20068;-54
2023/09/19 12:28:58;;;;;;;8.32;5.93;;;;;;;27.20;39.15;97651.94;10283548;28;20058;-54
2023/09/19 12:34:00;;;;;;;8.65;5.88;;;;;;;26.98;39.73;97633.97;10284116;28;20076;-54
2023/09/19 12:39:00;;;;;;;7.95;5.07;;;;;;;26.90;39.80;97646.94;10280136;28;20133;-54
2023/09/19 12:44:00;;;;;;;6.18;5.30;;;;;;;26.99;39.50;97636.50;10280601;28;20125;-53
2023/09/19 12:49:18;;;;;;;8.27;5.75;;;;;;;27.10;39.21;97598.47;10280825;28;20509;-53
2023/09/19 12:54:17;;;;;;;8.98;6.43;;;;;;;27.10;39.47;97642.91;10276129;28;20145;-54
2023/09/19 12:59:16;;;;;;;8.55;5.95;;;;;;;27.40;39.38;97640.75;10272661;28;20137;-52
2023/09/19 13:04:30;;;;;;;7.97;5.35;;;;;;;27.85;37.90;97634.03;10286416;28;20084;-53
2023/09/19 13:09:34;;;;;;;12.43;5.45;;;;;;;28.02;38.07;97630.97;10287766;28;20121;-54
2023/09/19 13:14:40;;;;;;;12.38;5.70;;;;;;;27.97;37.31;97617.13;10287810;28;20062;-53
2023/09/19 13:19:41;;;;;;;9.25;5.60;;;;;;;27.92;38.22;97629.97;10286033;28;20068;-52
2023/09/19 13:24:41;;;;;;;7.28;5.13;;;;;;;27.82;37.71;97606.63;10280949;28;20839;-52
2023/09/19 13:29:40;;;;;;;7.82;5.30;;;;;;;27.98;38.24;97587.66;10286447;28;20125;-54
2023/09/19 13:34:39;;;;;;;9.18;5.22;;;;;;;28.17;37.81;97579.19;10283868;28;20022;-54
2023/09/19 13:39:42;;;;;;;9.90;5.47;;;;;;;28.39;37.12;97577.53;10287536;28;20173;-53
2023/09/19 13:44:41;;;;;;;9.80;5.57;;;;;;;28.32;37.18;97611.00;10287523;28;20193;-55
2023/09/19 13:49:40;;;;;;;9.38;5.10;;;;;;;27.66;37.67;97619.38;10282878;28;20112;-54
2023/09/19 13:54:39;;;;;;;6.45;5.68;;;;;;;27.70;37.50;97614.66;10287378;28;20121;-55
2023/09/19 13:59:38;;;;;;;7.45;5.03;;;;;;;27.22;37.52;97492.84;10274309;28;20065;-57
2023/09/19 14:04:37;;;;;;;8.05;5.35;;;;;;;28.30;36.85;97612.94;10287040;28;20145;-54
2023/09/19 14:09:37;;;;;;;8.45;5.47;;;;;;;28.20;37.91;97612.78;10287107;28;20129;-54
2023/09/19 14:14:36;;;;;;;8.23;7.38;;;;;;;27.95;38.81;97619.06;10285880;28;20481;-54
2023/09/19 14:19:36;;;;;;;7.03;4.88;;;;;;;27.66;38.84;97624.72;10284450;28;20069;-53
2023/09/19 14:24:35;;;;;;;9.07;5.72;;;;;;;27.42;39.56;97625.50;10273983;28;20152;-53
2023/09/19 14:29:36;;;;;;;8.02;5.15;;;;;;;27.31;39.44;97624.56;10278983;28;20077;-54
2023/09/19 14:34:41;;;;;;;11.35;5.40;;;;;;;26.95;40.06;97623.50;10281065;28;20105;-54
2023/09/19 14:39:44;;;;;;;7.30;5.25;;;;;;;26.79;39.15;97616.56;10261985;28;20069;-54
2023/09/19 14:44:43;;;;;;;8.55;5.13;;;;;;;26.65;40.43;97619.34;10280726;28;20157;-53
2023/09/19 14:49:42;;;;;;;12.40;5.15;;;;;;;26.56;40.16;97611.97;10274117;28;20109;-53
2023/09/19 14:54:41;;;;;;;10.95;4.95;;;;;;;26.58;40.21;97610.91;10282378;28;20014;-53
2023/09/19 14:59:40;;;;;;;10.57;5.22;;;;;;;26.82;39.95;97612.84;10276840;28;20120;-54
2023/09/19 15:04:40;;;;;;;6.60;4.47;;;;;;;26.82;39.15;97612.00;10283261;28;20132;-55
2023/09/19 15:09:39;;;;;;;8.15;4.60;;;;;;;26.74;39.11;97610.69;10275213;28;20152;-54
2023/09/19 15:14:38;;;;;;;7.35;4.63;;;;;;;26.68;39.42;97612.94;10267344;28;20189;-55
2023/09/19 15:19:37;;;;;;;14.13;7.72;;;;;;;26.44;39.61;97580.88;10250608;28;20042;-55
2023/09/19 15:24:36;;;;;;;8.00;4.40;;;;;;;26.20;38.99;97581.56;10276327;28;20091;-53
2023/09/19 15:29:35;;;;;;;6.18;4.20;;;;;;;26.23;39.57;97609.78;10274066;28;20412;-53
2023/09/19 15:34:34;;;;;;;8.80;4.60;;;;;;;26.08;39.66;97601.84;10277537;28;20107;-55
2023/09/19 15:39:33;;;;;;;9.48;4.95;;;;;;;25.97;40.32;97614.97;10281505;28;20068;-54
2023/09/19 15:44:32;;;;;;;7.20;4.70;;;;;;;25.74;40.94;97625.31;10275921;28;20120;-60
2023/09/19 15:49:31;;;;;;;9.50;5.72;;;;;;;25.26;41.34;97635.41;10273184;28;20129;-57
2023/09/19 15:54:32;;;;;;;10.00;4.78;;;;;;;25.03;41.25;97638.66;10273657;28;20030;-54
2023/09/19 15:59:31;;;;;;;10.90;5.30;;;;;;;24.83;41.88;97606.19;10280894;28;20116;-56
2023/09/19 16:04:30;;;;;;;7.57;5.22;;;;;;;24.84;42.19;97650.34;10282209;28;20145;-56
2023/09/19 16:09:29;;;;;;;9.43;5.55;;;;;;;24.68;42.82;97655.75;10271007;28;20048;-53
2023/09/19 16:14:30;;;;;;;9.45;5.45;;;;;;;24.55;43.04;97646.81;10271853;28;20386;-55
2023/09/19 16:19:29;;;;;;;10.73;5.78;;;;;;;24.30;43.75;97651.84;10273435;28;20539;-54
2023/09/19 16:24:28;;;;;;;10.65;5.82;;;;;;;24.06;44.75;97657.59;10278660;28;20034;-54
2023/09/19 16:29:27;;;;;;;11.75;5.93;;;;;;;23.93;45.10;97662.72;10281672;28;20060;-53
2023/09/19 16:34:26;;;;;;;10.38;6.20;;;;;;;23.88;46.03;97651.53;10288933;28;20026;-52
2023/09/19 16:39:25;;;;;;;12.52;6.75;;;;;;;23.75;48.13;97664.63;10292330;28;20037;-52
2023/09/19 16:44:24;;;;;;;15.35;8.00;;;;;;;23.51;49.66;97664.19;10288647;28;20112;-52
2023/09/19 16:49:24;;;;;;;13.55;7.50;;;;;;;23.30;50.74;97673.25;10293319;28;20040;-52
2023/09/19 16:54:23;;;;;;;14.15;7.70;;;;;;;23.03;51.34;97681.75;10289261;28;20058;-52
2023/09/19 16:59:23;;;;;;;12.90;8.02;;;;;;;22.76;52.45;97676.97;10290850;28;20021;-52
2023/09/19 17:04:22;;;;;;;10.40;7.28;;;;;;;22.61;53.09;97701.50;10289476;28;20065;-54
2023/09/19 17:09:21;;;;;;;13.35;7.93;;;;;;;22.39;54.20;97683.25;10287688;28;20134;-52
2023/09/19 17:14:20;;;;;;;12.93;7.80;;;;;;;22.26;54.75;97675.03;10289844;28;20053;-52
2023/09/19 17:19:22;;;;;;;12.23;7.97;;;;;;;22.12;55.31;97688.09;10289994;28;20025;-53
2023/09/19 17:24:21;;;;;;;20.40;8.68;;;;;;;21.99;56.30;97687.81;10267676;28;20073;-53
2023/09/19 17:29:20;;;;;;;17.90;10.70;;;;;;;21.84;56.65;97694.66;10232467;28;20117;-53
2023/09/19 17:34:20;;;;;;;13.30;8.05;;;;;;;21.65;57.26;97683.25;10245161;28;20030;-53
2023/09/19 17:39:19;;;;;;;12.18;7.70;;;;;;;21.41;57.41;97666.78;10243492;28;20082;-53
2023/09/19 17:44:18;;;;;;;11.63;7.18;;;;;;;21.32;57.67;97687.38;10246555;28;20018;-53
2023/09/19 17:49:17;;;;;;;9.75;6.53;;;;;;;21.07;58.07;97676.19;10247260;28;20037;-52
2023/09/19 17:54:16;;;;;;;9.75;6.75;;;;;;;21.10;58.80;97703.31;10246044;28;20777;-51
2023/09/19 17:59:15;;;;;;;9.32;6.60;;;;;;;20.83;58.75;97671.06;10241902;28;20109;-52
2023/09/19 18:04:14;;;;;;;11.23;6.80;;;;;;;20.77;59.12;97704.75;10246659;28;20122;-52
2023/09/19 18:09:14;;;;;;;10.00;6.28;;;;;;;20.71;58.94;97705.88;10246397;28;20042;-51
2023/09/19 18:14:15;;;;;;;14.40;6.53;;;;;;;20.61;59.14;97715.97;10247320;28;20842;-52
2023/09/19 18:19:15;;;;;;;11.18;7.55;;;;;;;20.56;59.12;97724.97;10246162;28;20074;-52
2023/09/19 18:24:15;;;;;;;10.48;6.68;;;;;;;20.49;59.70;97727.88;10245543;28;20101;-52
2023/09/19 18:29:14;;;;;;;14.10;8.23;;;;;;;20.40;60.36;97738.81;10241506;28;20138;-52
2023/09/19 18:34:13;;;;;;;11.98;7.90;;;;;;;20.24;60.79;97737.69;10237719;28;20097;-52
2023/09/19 18:39:14;;;;;;;20.13;9.65;;;;;;;19.95;62.89;97720.38;10234440;28;20141;-52
2023/09/19 18:44:14;;;;;;;19.58;9.65;;;;;;;19.98;63.42;97736.09;10242545;28;20081;-52
2023/09/19 18:49:13;;;;;;;18.38;10.23;;;;;;;19.93;64.21;97751.19;10241875;28;20117;-51
2023/09/19 18:54:13;;;;;;;23.80;11.02;;;;;;;19.89;64.79;97758.38;10233139;28;20128;-52
2023/09/19 18:59:13;;;;;;;16.48;9.88;;;;;;;19.79;64.77;97776.31;10236473;28;20532;-52
2023/09/19 19:04:12;;;;;;;14.48;8.85;;;;;;;19.76;65.09;97773.75;10235986;28;20138;-52
2023/09/19 19:09:11;;;;;;;14.65;9.60;;;;;;;19.71;65.45;97774.84;10243376;28;20084;-52
2023/09/19 19:14:12;;;;;;;12.48;8.00;;;;;;;19.62;65.94;97776.91;10243755;28;20085;-52
2023/09/19 19:19:11;;;;;;;11.43;8.13;;;;;;;19.42;66.29;97774.13;10243538;28;20085;-52
2023/09/19 19:24:10;;;;;;;14.40;7.80;;;;;;;19.35;66.39;97775.28;10243617;28;20048;-52
2023/09/19 19:29:09;;;;;;;14.32;8.80;;;;;;;19.26;66.59;97773.81;10243305;28;20080;-53
2023/09/19 19:34:09;;;;;;;20.15;9.07;;;;;;;19.15;66.90;97781.22;10241639;28;20077;-52
2023/09/19 19:39:08;;;;;;;16.67;9.05;;;;;;;19.10;68.06;97786.66;10239392;28;20065;-52
2023/09/19 19:44:07;;;;;;;13.05;9.85;;;;;;;18.88;69.73;97809.31;10246575;28;20125;-52
2023/09/19 19:49:07;;;;;;;15.73;10.77;;;;;;;18.67;71.85;97835.41;10245520;28;20077;-51
2023/09/19 19:54:07;;;;;;;15.32;10.20;;;;;;;18.56;72.72;97861.16;10242109;28;20066;-52
2023/09/19 19:59:06;;;;;;;15.65;10.00;;;;;;;18.24;72.98;97835.88;10238764;28;20061;-51
2023/09/19 20:04:05;;;;;;;16.48;10.55;;;;;;;18.17;72.55;97833.47;10246297;28;20108;-53
2023/09/19 20:09:05;;;;;;;15.15;10.25;;;;;;;18.54;72.24;97903.25;10246344;28;20129;-52
2023/09/19 20:14:04;;;;;;;12.98;9.40;;;;;;;18.55;73.60;97915.50;10246253;28;20081;-52
2023/09/19 20:19:04;;;;;;;13.60;9.30;;;;;;;18.58;73.47;97917.16;10246481;28;20509;-51
2023/09/19 20:24:09;;;;;;;14.13;9.27;;;;;;;18.24;74.24;97864.78;10246565;28;20069;-52
2023/09/19 20:29:08;;;;;;;14.63;9.55;;;;;;;18.53;75.34;97927.81;10244970;28;20085;-52
2023/09/19 20:34:09;;;;;;;10.98;8.80;;;;;;;18.50;75.68;97920.03;10246047;28;20113;-52
2023/09/19 20:39:10;;;;;;;14.63;8.63;;;;;;;18.51;75.23;97927.00;10239748;28;20070;-52
2023/09/19 20:44:10;;;;;;;11.38;7.95;;;;;;;18.57;74.64;97942.59;10241932;28;20117;-52
2023/09/19 20:49:09;;;;;;;12.07;8.65;;;;;;;18.59;74.30;97959.16;10240847;28;20078;-52
2023/09/19 20:54:08;;;;;;;12.35;7.97;;;;;;;18.79;72.73;97973.50;10240528;28;20116;-52
2023/09/19 20:59:08;;;;;;;15.18;8.27;;;;;;;18.59;71.75;97925.00;10233406;28;20050;-52
2023/09/19 21:04:07;;;;;;;12.95;8.35;;;;;;;18.96;71.31;97984.34;10232913;28;20076;-52
2023/09/19 21:09:08;;;;;;;12.50;8.98;;;;;;;18.98;70.84;97974.66;10241080;28;20042;-52
2023/09/19 21:14:07;;;;;;;12.05;8.50;;;;;;;19.16;70.38;98011.84;10241247;28;20125;-52
2023/09/19 21:19:07;;;;;;;19.58;10.90;;;;;;;19.12;70.77;98039.13;10244545;28;20022;-52
2023/09/19 21:24:09;;;;;;;20.00;11.27;;;;;;;19.19;71.65;98053.81;10248726;28;20089;-52
2023/09/19 21:29:08;;;;;;;15.70;10.82;;;;;;;19.23;73.52;98068.59;10248473;28;20774;-52
2023/09/19 21:34:09;;;;;;;17.88;10.95;;;;;;;19.29;76.31;98078.91;10241884;28;20469;-53
2023/09/19 21:39:08;;;;;;;18.55;11.00;;;;;;;19.28;78.49;98087.75;10247827;28;20125;-53
2023/09/19 21:44:07;;;;;;;22.30;12.93;;;;;;;19.20;80.61;98089.72;10247455;28;20376;-52
2023/09/19 21:49:06;;;;;;;22.38;13.13;;;;;;;19.09;81.62;98065.50;10247897;28;20030;-51
2023/09/19 21:54:05;;;;;;;23.77;14.20;;;;;;;18.49;82.73;97997.13;10241235;28;20070;-51
2023/09/19 21:59:04;;;;;;;22.30;12.35;;;;;;;18.15;83.99;97945.56;10247684;28;20050;-51
2023/09/19 22:04:03;;;;;;;20.65;12.32;;;;;;;18.40;84.76;97960.63;10242440;28;20046;-53
2023/09/19 22:09:03;;;;;;;19.48;13.50;;;;;;;18.18;85.65;97955.13;10239944;28;20047;-51
2023/09/19 22:14:02;;;;;;;20.40;13.10;;;;;;;18.25;85.95;97959.31;10247943;28;20840;-52
2023/09/19 22:19:01;;;;;;;20.77;14.23;;;;;;;18.00;87.45;97900.50;10242345;28;20421;-53
2023/09/19 22:24:00;;;;;;;19.42;13.65;;;;;;;17.98;87.72;97916.28;10245287;28;20134;-51
2023/09/19 22:28:59;;;;;;;19.50;12.35;;;;;;;17.80;89.07;97932.53;10243696;28;20117;-51
2023/09/19 22:33:58;;;;;;;16.85;11.75;;;;;;;17.58;89.94;97925.22;10239001;28;20034;-52
2023/09/19 22:39:00;;;;;;;19.70;11.88;;;;;;;17.58;91.37;97951.47;10246136;28;20060;-52
2023/09/19 22:43:59;;;;;;;20.95;13.48;;;;;;;17.55;91.62;97926.16;10246405;28;20092;-51
2023/09/19 22:49:00;;;;;;;20.10;14.65;;;;;;;17.28;91.79;97901.50;10243152;28;20042;-51
2023/09/19 22:53:59;;;;;;;22.80;13.10;;;;;;;17.50;91.02;97924.56;10240969;28;20141;-52
2023/09/19 22:58:58;;;;;;;22.58;15.35;;;;;;;17.48;91.08;97898.38;10241177;28;20615;-51
2023/09/19 23:04:30;;;;;;;19.83;14.82;;;;;;;17.51;91.04;97877.28;10237953;28;20565;-53
2023/09/19 23:09:26;;;;;;;20.30;14.00;;;;;;;17.52;90.88;97851.94;10239579;28;20066;-52
2023/09/19 23:14:32;;;;;;;23.20;14.05;;;;;;;17.41;91.28;97827.75;10244917;28;20066;-51